createdAt,value
2018-12-27T00:00:15.644Z,3.10
2018-12-27T00:01:16.925Z,3.10
2018-12-27T00:02:17.949Z,3.10
2018-12-27T00:03:19.020Z,3.10
2018-12-27T00:04:20.052Z,3.10
2018-12-27T00:05:21.068Z,3.10
2018-12-27T00:06:22.116Z,3.20
2018-12-27T00:07:23.133Z,3.20
2018-12-27T00:08:24.161Z,3.20
2018-12-27T00:09:25.176Z,3.20
2018-12-27T00:10:26.201Z,3.20
2018-12-27T00:11:27.224Z,3.20
2018-12-27T00:12:28.245Z,3.20
2018-12-27T00:13:29.276Z,3.20
2018-12-27T00:14:30.300Z,3.20
2018-12-27T00:15:31.316Z,3.20
2018-12-27T00:16:32.389Z,3.20
2018-12-27T00:17:33.456Z,3.30
2018-12-27T00:18:34.489Z,3.30
2018-12-27T00:19:35.516Z,3.20
2018-12-27T00:20:36.524Z,3.20
2018-12-27T00:21:37.548Z,3.10
2018-12-27T00:22:38.560Z,3.10
2018-12-27T00:23:39.589Z,3.00
2018-12-27T00:24:40.610Z,3.00
2018-12-27T00:25:41.625Z,2.90
2018-12-27T00:26:42.644Z,2.90
2018-12-27T00:27:43.691Z,2.80
2018-12-27T00:28:44.718Z,2.80
2018-12-27T00:29:45.968Z,2.70
2018-12-27T00:30:46.991Z,2.60
2018-12-27T00:31:48.008Z,2.70
2018-12-27T00:32:49.049Z,2.70
2018-12-27T00:33:50.099Z,2.70
2018-12-27T00:34:51.125Z,2.70
2018-12-27T00:35:52.173Z,2.70
2018-12-27T00:36:53.195Z,2.60
2018-12-27T00:37:54.468Z,2.60
2018-12-27T00:38:55.516Z,2.60
2018-12-27T00:39:56.537Z,2.50
2018-12-27T00:40:57.556Z,2.40
2018-12-27T00:41:58.602Z,2.40
2018-12-27T00:43:00.043Z,2.40
2018-12-27T00:44:01.204Z,2.40
2018-12-27T00:45:02.233Z,2.40
2018-12-27T00:46:03.252Z,2.40
2018-12-27T00:47:04.272Z,2.40
2018-12-27T00:48:05.288Z,2.30
2018-12-27T00:49:06.316Z,2.40
2018-12-27T00:50:07.332Z,2.40
2018-12-27T00:51:08.346Z,2.40
2018-12-27T00:52:09.364Z,2.40
2018-12-27T00:53:10.373Z,2.40
2018-12-27T00:54:11.400Z,2.40
2018-12-27T00:55:12.448Z,2.50
2018-12-27T00:56:13.477Z,2.40
2018-12-27T00:57:14.493Z,2.40
2018-12-27T00:58:15.505Z,2.40
2018-12-27T00:59:16.834Z,2.40
2018-12-27T01:00:17.846Z,2.40
2018-12-27T01:01:18.868Z,2.40
2018-12-27T01:02:19.900Z,2.40
2018-12-27T01:03:20.940Z,2.40
2018-12-27T01:04:21.965Z,2.40
2018-12-27T01:05:22.992Z,2.50
2018-12-27T01:06:24.016Z,2.50
2018-12-27T01:07:25.029Z,2.40
2018-12-27T01:08:26.049Z,2.40
2018-12-27T01:09:27.076Z,2.50
2018-12-27T01:10:28.097Z,2.40
2018-12-27T01:11:29.109Z,2.40
2018-12-27T01:12:30.152Z,2.40
2018-12-27T01:13:31.162Z,2.40
2018-12-27T01:14:32.193Z,2.40
2018-12-27T01:15:33.213Z,2.40
2018-12-27T01:16:34.228Z,2.40
2018-12-27T01:17:35.245Z,2.40
2018-12-27T01:18:36.261Z,2.40
2018-12-27T01:19:37.289Z,2.40
2018-12-27T01:20:38.316Z,2.40
2018-12-27T01:21:39.337Z,2.40
2018-12-27T01:22:40.352Z,2.40
2018-12-27T01:23:41.368Z,2.40
2018-12-27T01:24:42.395Z,2.40
2018-12-27T01:25:43.415Z,2.40
2018-12-27T01:26:44.436Z,2.40
2018-12-27T01:27:45.461Z,2.30
2018-12-27T01:28:46.485Z,2.30
2018-12-27T01:29:47.504Z,2.30
2018-12-27T01:30:48.525Z,2.40
2018-12-27T01:31:50.694Z,2.30
2018-12-27T01:32:51.865Z,2.30
2018-12-27T01:33:52.882Z,2.30
2018-12-27T01:34:53.922Z,2.30
2018-12-27T01:35:54.949Z,2.30
2018-12-27T01:36:55.982Z,2.30
2018-12-27T01:37:57.000Z,2.10
2018-12-27T01:38:58.017Z,2.20
2018-12-27T01:39:59.045Z,2.20
2018-12-27T01:41:00.065Z,2.20
2018-12-27T01:42:01.261Z,2.20
2018-12-27T01:43:02.277Z,2.20
2018-12-27T01:44:03.284Z,2.30
2018-12-27T01:45:04.314Z,2.30
2018-12-27T01:46:05.345Z,2.30
2018-12-27T01:47:06.352Z,2.30
2018-12-27T01:48:07.368Z,2.30
2018-12-27T01:49:08.388Z,2.30
2018-12-27T01:50:09.452Z,2.30
2018-12-27T01:51:10.476Z,2.30
2018-12-27T01:52:11.499Z,2.30
2018-12-27T01:53:12.512Z,2.30
2018-12-27T01:54:13.541Z,2.30
2018-12-27T01:55:14.564Z,2.30
2018-12-27T01:56:15.586Z,2.30
2018-12-27T01:57:16.605Z,2.40
2018-12-27T01:58:17.624Z,2.40
2018-12-27T01:59:18.693Z,2.50
2018-12-27T02:00:19.712Z,2.50
2018-12-27T02:01:20.737Z,2.50
2018-12-27T02:02:22.068Z,2.50
2018-12-27T02:03:26.459Z,2.50
2018-12-27T02:04:26.005Z,2.50
2018-12-27T02:05:27.028Z,2.50
2018-12-27T02:06:28.051Z,2.50
2018-12-27T02:07:29.069Z,2.50
2018-12-27T02:08:30.396Z,2.50
2018-12-27T02:09:31.417Z,2.50
2018-12-27T02:10:32.466Z,2.50
2018-12-27T02:11:33.503Z,2.60
2018-12-27T02:12:34.829Z,2.60
2018-12-27T02:13:35.847Z,2.60
2018-12-27T02:14:37.080Z,2.70
2018-12-27T02:15:38.107Z,2.70
2018-12-27T02:16:39.125Z,2.70
2018-12-27T02:17:40.153Z,2.60
2018-12-27T02:18:41.168Z,2.70
2018-12-27T02:19:42.192Z,2.70
2018-12-27T02:20:43.307Z,2.70
2018-12-27T02:21:44.319Z,2.70
2018-12-27T02:22:45.332Z,2.70
2018-12-27T02:23:46.358Z,2.70
2018-12-27T02:24:47.377Z,2.70
2018-12-27T02:25:48.405Z,2.70
2018-12-27T02:26:49.505Z,2.70
2018-12-27T02:27:50.522Z,2.60
2018-12-27T02:28:51.540Z,2.60
2018-12-27T02:29:52.561Z,2.60
2018-12-27T02:30:53.590Z,2.60
2018-12-27T02:31:54.630Z,2.60
2018-12-27T02:32:55.729Z,2.50
2018-12-27T02:33:56.753Z,2.50
2018-12-27T02:34:57.836Z,2.50
2018-12-27T02:35:58.915Z,2.50
2018-12-27T02:36:59.945Z,2.60
2018-12-27T02:38:00.966Z,2.60
2018-12-27T02:39:02.689Z,2.60
2018-12-27T02:40:03.808Z,2.60
2018-12-27T02:41:04.833Z,2.50
2018-12-27T02:42:05.850Z,2.50
2018-12-27T02:43:06.877Z,2.60
2018-12-27T02:44:07.903Z,2.60
2018-12-27T02:45:08.914Z,2.60
2018-12-27T02:46:09.956Z,2.60
2018-12-27T02:47:10.970Z,2.60
2018-12-27T02:48:11.986Z,2.60
2018-12-27T02:49:13.009Z,2.60
2018-12-27T02:50:14.432Z,2.60
2018-12-27T02:51:15.465Z,2.60
2018-12-27T02:52:16.485Z,2.60
2018-12-27T02:53:17.498Z,2.50
2018-12-27T02:54:18.527Z,2.50
2018-12-27T02:55:19.528Z,2.50
2018-12-27T02:56:20.557Z,2.60
2018-12-27T02:57:21.572Z,2.50
2018-12-27T02:58:22.593Z,2.50
2018-12-27T02:59:23.608Z,2.50
2018-12-27T03:00:24.624Z,2.60
2018-12-27T03:01:25.655Z,2.50
2018-12-27T03:02:26.665Z,2.60
2018-12-27T03:03:27.684Z,2.60
2018-12-27T03:04:28.705Z,2.50
2018-12-27T03:05:29.712Z,2.50
2018-12-27T03:06:30.740Z,2.50
2018-12-27T03:07:31.760Z,2.50
2018-12-27T03:08:32.785Z,2.50
2018-12-27T03:09:33.806Z,2.50
2018-12-27T03:10:34.816Z,2.50
2018-12-27T03:11:35.849Z,2.40
2018-12-27T03:12:36.868Z,2.40
2018-12-27T03:13:37.872Z,2.40
2018-12-27T03:14:38.900Z,2.40
2018-12-27T03:15:39.921Z,2.40
2018-12-27T03:16:40.950Z,2.40
2018-12-27T03:17:41.965Z,2.40
2018-12-27T03:18:42.989Z,2.40
2018-12-27T03:19:44.006Z,2.40
2018-12-27T03:20:45.022Z,2.40
2018-12-27T03:21:46.043Z,2.30
2018-12-27T03:22:47.064Z,2.50
2018-12-27T03:23:48.104Z,2.40
2018-12-27T03:24:49.121Z,2.40
2018-12-27T03:25:50.140Z,2.40
2018-12-27T03:26:51.170Z,2.40
2018-12-27T03:27:52.184Z,2.40
2018-12-27T03:28:53.213Z,2.30
2018-12-27T03:29:54.228Z,2.40
2018-12-27T03:30:55.255Z,2.40
2018-12-27T03:31:56.279Z,2.40
2018-12-27T03:32:57.295Z,2.40
2018-12-27T03:33:58.313Z,2.40
2018-12-27T03:34:59.337Z,2.40
2018-12-27T03:36:00.358Z,2.40
2018-12-27T03:37:01.390Z,2.40
2018-12-27T03:38:02.421Z,2.40
2018-12-27T03:39:04.238Z,2.40
2018-12-27T03:40:05.260Z,2.40
2018-12-27T03:41:06.271Z,2.40
2018-12-27T03:42:07.300Z,2.40
2018-12-27T03:43:08.313Z,2.50
2018-12-27T03:44:09.328Z,2.50
2018-12-27T03:45:10.352Z,2.50
2018-12-27T03:46:11.373Z,2.50
2018-12-27T03:47:12.425Z,2.50
2018-12-27T03:48:13.477Z,2.50
2018-12-27T03:49:14.572Z,2.60
2018-12-27T03:50:15.597Z,2.60
2018-12-27T03:51:16.612Z,2.60
2018-12-27T03:52:17.646Z,2.60
2018-12-27T03:53:18.689Z,2.60
2018-12-27T03:54:19.716Z,2.60
2018-12-27T03:55:20.730Z,2.60
2018-12-27T03:56:21.756Z,2.60
2018-12-27T03:57:22.780Z,2.70
2018-12-27T03:58:23.804Z,2.70
2018-12-27T03:59:24.815Z,2.70
2018-12-27T04:00:25.825Z,2.70
2018-12-27T04:01:26.856Z,2.70
2018-12-27T04:02:27.895Z,2.70
2018-12-27T04:03:28.917Z,2.70
2018-12-27T04:04:29.931Z,2.70
2018-12-27T04:05:30.958Z,2.70
2018-12-27T04:06:31.980Z,2.70
2018-12-27T04:07:33.014Z,2.70
2018-12-27T04:08:34.031Z,2.70
2018-12-27T04:09:35.050Z,2.70
2018-12-27T04:10:36.065Z,2.70
2018-12-27T04:11:37.087Z,2.70
2018-12-27T04:12:38.104Z,2.70
2018-12-27T04:13:39.125Z,2.70
2018-12-27T04:14:40.141Z,2.70
2018-12-27T04:15:41.160Z,2.70
2018-12-27T04:16:42.181Z,2.60
2018-12-27T04:17:43.211Z,2.50
2018-12-27T04:18:44.230Z,2.50
2018-12-27T04:19:45.244Z,2.50
2018-12-27T04:20:46.297Z,2.40
2018-12-27T04:21:47.384Z,2.40
2018-12-27T04:22:48.414Z,2.40
2018-12-27T04:23:50.132Z,2.40
2018-12-27T04:24:51.256Z,2.40
2018-12-27T04:25:52.672Z,2.40
2018-12-27T04:26:53.698Z,2.40
2018-12-27T04:27:54.712Z,2.40
2018-12-27T04:28:55.742Z,2.40
2018-12-27T04:29:56.769Z,2.40
2018-12-27T04:30:58.085Z,2.40
2018-12-27T04:31:59.106Z,2.40
2018-12-27T04:33:03.332Z,2.40
2018-12-27T04:34:09.510Z,2.30
2018-12-27T04:35:07.764Z,2.30
2018-12-27T04:36:09.381Z,2.30
2018-12-27T04:37:10.912Z,2.30
2018-12-27T04:38:11.952Z,2.30
2018-12-27T04:39:12.984Z,2.30
2018-12-27T04:40:14.021Z,2.20
2018-12-27T04:41:15.046Z,2.20
2018-12-27T04:42:16.606Z,2.20
2018-12-27T04:43:17.636Z,2.20
2018-12-27T04:44:18.778Z,2.10
2018-12-27T04:45:19.798Z,2.10
2018-12-27T04:46:20.818Z,2.00
2018-12-27T04:47:22.032Z,2.10
2018-12-27T04:48:23.061Z,2.00
2018-12-27T04:49:24.092Z,2.00
2018-12-27T04:50:25.108Z,2.00
2018-12-27T04:51:26.134Z,2.00
2018-12-27T04:52:27.144Z,1.90
2018-12-27T04:53:28.185Z,1.90
2018-12-27T04:54:29.198Z,1.90
2018-12-27T04:55:30.210Z,1.90
2018-12-27T04:56:31.224Z,1.80
2018-12-27T04:57:32.251Z,1.70
2018-12-27T04:58:33.276Z,1.70
2018-12-27T04:59:34.297Z,1.60
2018-12-27T05:00:35.310Z,1.60
2018-12-27T05:01:36.329Z,1.60
2018-12-27T05:02:37.352Z,1.60
2018-12-27T05:03:38.382Z,1.70
2018-12-27T05:04:39.640Z,1.50
2018-12-27T05:05:40.655Z,1.80
2018-12-27T05:06:41.719Z,1.90
2018-12-27T05:07:42.822Z,1.90
2018-12-27T05:08:43.838Z,1.90
2018-12-27T05:09:44.866Z,1.90
2018-12-27T05:10:45.992Z,1.90
2018-12-27T05:11:47.011Z,1.90
2018-12-27T05:12:48.041Z,2.00
2018-12-27T05:13:49.064Z,2.00
2018-12-27T05:14:50.093Z,2.10
2018-12-27T05:15:51.098Z,2.10
2018-12-27T05:16:52.121Z,2.10
2018-12-27T05:17:53.141Z,2.10
2018-12-27T05:18:54.173Z,2.10
2018-12-27T05:19:55.188Z,2.10
2018-12-27T05:20:56.220Z,2.00
2018-12-27T05:21:57.242Z,1.90
2018-12-27T05:22:58.261Z,1.90
2018-12-27T05:23:59.286Z,1.90
2018-12-27T05:25:00.302Z,1.80
2018-12-27T05:26:01.321Z,1.80
2018-12-27T05:27:02.356Z,1.70
2018-12-27T05:28:03.365Z,1.70
2018-12-27T05:29:04.406Z,1.70
2018-12-27T05:30:05.424Z,1.70
2018-12-27T05:31:06.456Z,1.70
2018-12-27T05:32:07.481Z,1.70
2018-12-27T05:33:08.525Z,1.70
2018-12-27T05:34:09.548Z,1.40
2018-12-27T05:35:10.568Z,1.20
2018-12-27T05:36:11.693Z,1.20
2018-12-27T05:37:12.722Z,1.30
2018-12-27T05:38:13.757Z,1.50
2018-12-27T05:39:14.778Z,1.50
2018-12-27T05:40:15.806Z,1.50
2018-12-27T05:41:16.821Z,1.50
2018-12-27T05:42:17.852Z,1.40
2018-12-27T05:43:18.889Z,1.40
2018-12-27T05:44:20.165Z,1.30
2018-12-27T05:45:21.169Z,1.30
2018-12-27T05:46:22.184Z,1.30
2018-12-27T05:47:23.213Z,1.30
2018-12-27T05:48:24.245Z,1.40
2018-12-27T05:49:25.288Z,1.40
2018-12-27T05:50:26.289Z,1.40
2018-12-27T05:51:27.296Z,1.50
2018-12-27T05:52:28.329Z,1.50
2018-12-27T05:53:29.350Z,1.50
2018-12-27T05:54:30.377Z,1.50
2018-12-27T05:55:34.371Z,1.50
2018-12-27T05:56:34.320Z,1.50
2018-12-27T05:57:35.334Z,1.50
2018-12-27T05:58:36.357Z,1.50
2018-12-27T05:59:37.381Z,1.50
2018-12-27T06:00:38.397Z,1.50
2018-12-27T06:01:39.416Z,1.50
2018-12-27T06:02:40.436Z,1.50
2018-12-27T06:03:41.578Z,1.50
2018-12-27T06:04:42.590Z,1.50
2018-12-27T06:05:43.625Z,1.60
2018-12-27T06:06:44.661Z,1.60
2018-12-27T06:07:45.676Z,1.60
2018-12-27T06:08:46.725Z,1.60
2018-12-27T06:09:47.741Z,1.70
2018-12-27T06:10:48.762Z,1.20
2018-12-27T06:11:49.783Z,1.40
2018-12-27T06:12:50.789Z,1.70
2018-12-27T06:13:51.825Z,1.70
2018-12-27T06:14:52.836Z,1.40
2018-12-27T06:15:53.860Z,1.70
2018-12-27T06:16:54.883Z,1.70
2018-12-27T06:17:55.901Z,1.40
2018-12-27T06:18:56.962Z,1.60
2018-12-27T06:19:57.985Z,1.60
2018-12-27T06:20:59.003Z,1.30
2018-12-27T06:22:00.026Z,1.50
2018-12-27T06:23:01.057Z,1.20
2018-12-27T06:24:02.086Z,1.50
2018-12-27T06:25:03.209Z,1.50
2018-12-27T06:26:04.225Z,1.50
2018-12-27T06:27:05.279Z,1.20
2018-12-27T06:28:06.309Z,1.50
2018-12-27T06:29:07.356Z,1.50
2018-12-27T06:30:08.373Z,1.50
2018-12-27T06:31:09.467Z,1.60
2018-12-27T06:32:10.509Z,1.60
2018-12-27T06:33:11.529Z,1.50
2018-12-27T06:34:12.683Z,1.40
2018-12-27T06:35:13.705Z,1.80
2018-12-27T06:36:14.731Z,1.90
2018-12-27T06:37:15.766Z,1.80
2018-12-27T06:38:16.985Z,1.80
2018-12-27T06:39:18.013Z,1.80
2018-12-27T06:40:19.024Z,1.80
2018-12-27T06:41:20.045Z,1.70
2018-12-27T06:42:21.160Z,1.70
2018-12-27T06:43:22.181Z,1.60
2018-12-27T06:44:23.212Z,1.70
2018-12-27T06:45:24.234Z,1.80
2018-12-27T06:46:25.244Z,1.70
2018-12-27T06:47:26.265Z,1.60
2018-12-27T06:48:27.280Z,1.80
2018-12-27T06:49:28.309Z,1.80
2018-12-27T06:50:29.325Z,1.70
2018-12-27T06:51:30.344Z,1.60
2018-12-27T06:52:31.384Z,1.70
2018-12-27T06:53:32.388Z,1.60
2018-12-27T06:54:33.657Z,1.60
2018-12-27T06:55:34.683Z,1.40
2018-12-27T06:56:35.697Z,1.50
2018-12-27T06:57:36.708Z,1.50
2018-12-27T06:58:38.099Z,1.20
2018-12-27T06:59:39.259Z,1.50
2018-12-27T07:00:40.272Z,1.50
2018-12-27T07:01:41.289Z,1.60
2018-12-27T07:02:42.313Z,1.40
2018-12-27T07:03:43.325Z,1.40
2018-12-27T07:04:48.927Z,0.90
2018-12-27T07:05:47.292Z,1.40
2018-12-27T07:06:48.316Z,1.40
2018-12-27T07:07:49.346Z,1.00
2018-12-27T07:08:50.360Z,1.40
2018-12-27T07:09:51.393Z,1.10
2018-12-27T07:10:52.416Z,1.50
2018-12-27T07:11:53.441Z,1.40
2018-12-27T07:12:54.477Z,1.00
2018-12-27T07:13:55.494Z,1.20
2018-12-27T07:14:56.541Z,1.50
2018-12-27T07:15:57.555Z,1.50
2018-12-27T07:16:58.573Z,1.40
2018-12-27T07:17:59.592Z,1.60
2018-12-27T07:19:00.613Z,1.60
2018-12-27T07:20:01.745Z,1.50
2018-12-27T07:21:02.765Z,1.70
2018-12-27T07:22:03.787Z,1.70
2018-12-27T07:23:04.816Z,1.70
2018-12-27T07:24:05.834Z,1.70
2018-12-27T07:25:06.856Z,1.70
2018-12-27T07:26:07.877Z,1.60
2018-12-27T07:27:08.931Z,1.40
2018-12-27T07:28:09.981Z,1.20
2018-12-27T07:29:11.055Z,1.50
2018-12-27T07:30:12.273Z,1.50
2018-12-27T07:31:13.308Z,1.60
2018-12-27T07:32:14.326Z,1.50
2018-12-27T07:33:15.344Z,1.60
2018-12-27T07:34:16.362Z,1.60
2018-12-27T07:35:17.391Z,1.70
2018-12-27T07:36:18.487Z,1.80
2018-12-27T07:37:19.544Z,1.80
2018-12-27T07:38:20.780Z,1.50
2018-12-27T07:39:21.883Z,1.90
2018-12-27T07:40:22.914Z,1.90
2018-12-27T07:41:23.949Z,1.90
2018-12-27T07:42:24.961Z,1.90
2018-12-27T07:43:25.980Z,2.00
2018-12-27T07:44:27.001Z,2.00
2018-12-27T07:45:28.040Z,1.80
2018-12-27T07:46:29.070Z,1.90
2018-12-27T07:47:30.099Z,2.00
2018-12-27T07:48:31.130Z,1.90
2018-12-27T07:49:32.148Z,1.80
2018-12-27T07:50:33.180Z,1.50
2018-12-27T07:51:34.202Z,1.70
2018-12-27T07:52:35.240Z,1.50
2018-12-27T07:53:36.312Z,1.60
2018-12-27T07:54:37.332Z,1.30
2018-12-27T07:55:38.355Z,1.30
2018-12-27T07:56:39.396Z,1.80
2018-12-27T07:57:40.421Z,1.60
2018-12-27T07:58:41.441Z,1.60
2018-12-27T07:59:42.481Z,1.30
2018-12-27T08:00:43.529Z,1.70
2018-12-27T08:01:44.555Z,1.70
2018-12-27T08:02:45.853Z,1.70
2018-12-27T08:03:46.885Z,1.90
2018-12-27T08:04:47.897Z,1.80
2018-12-27T08:05:48.946Z,1.80
2018-12-27T08:06:49.962Z,1.80
2018-12-27T08:07:50.984Z,1.80
2018-12-27T08:08:52.001Z,1.80
2018-12-27T08:09:53.030Z,1.40
2018-12-27T08:10:54.077Z,1.90
2018-12-27T08:11:55.088Z,1.90
2018-12-27T08:12:56.115Z,1.90
2018-12-27T08:13:57.128Z,1.60
2018-12-27T08:14:58.149Z,1.90
2018-12-27T08:15:59.221Z,1.90
2018-12-27T08:17:00.236Z,1.90
2018-12-27T08:18:01.252Z,2.10
2018-12-27T08:19:02.273Z,1.90
2018-12-27T08:20:05.303Z,2.10
2018-12-27T08:21:06.379Z,1.90
2018-12-27T08:22:07.376Z,1.90
2018-12-27T08:23:08.723Z,1.90
2018-12-27T08:24:09.757Z,1.90
2018-12-27T08:25:10.785Z,1.90
2018-12-27T08:26:11.821Z,2.00
2018-12-27T08:27:12.897Z,1.40
2018-12-27T08:28:14.004Z,1.90
2018-12-27T08:29:15.016Z,1.90
2018-12-27T08:30:16.026Z,1.40
2018-12-27T08:31:17.077Z,2.00
2018-12-27T08:32:18.070Z,2.00
2018-12-27T08:33:19.088Z,2.00
2018-12-27T08:34:20.112Z,2.10
2018-12-27T08:35:21.121Z,2.00
2018-12-27T08:36:22.174Z,2.20
2018-12-27T08:37:23.203Z,2.20
2018-12-27T08:38:24.225Z,2.30
2018-12-27T08:39:25.480Z,2.30
2018-12-27T08:40:26.489Z,2.30
2018-12-27T08:41:27.520Z,2.30
2018-12-27T08:42:28.536Z,2.40
2018-12-27T08:43:29.564Z,2.40
2018-12-27T08:44:30.585Z,2.40
2018-12-27T08:45:31.612Z,2.40
2018-12-27T08:46:32.651Z,2.40
2018-12-27T08:47:33.969Z,2.40
2018-12-27T08:48:34.990Z,2.40
2018-12-27T08:49:36.009Z,2.50
2018-12-27T08:50:37.029Z,2.50
2018-12-27T08:51:38.071Z,2.50
2018-12-27T08:52:39.093Z,2.60
2018-12-27T08:53:40.121Z,2.60
2018-12-27T08:54:41.133Z,2.60
2018-12-27T08:55:42.152Z,2.60
2018-12-27T08:56:43.192Z,2.70
2018-12-27T08:57:44.213Z,2.60
2018-12-27T08:58:45.228Z,2.60
2018-12-27T08:59:46.249Z,2.60
2018-12-27T09:00:47.268Z,2.70
2018-12-27T09:01:48.301Z,2.70
2018-12-27T09:02:49.329Z,2.80
2018-12-27T09:03:50.344Z,2.80
2018-12-27T09:04:51.367Z,2.80
2018-12-27T09:05:52.380Z,2.70
2018-12-27T09:06:53.409Z,2.70
2018-12-27T09:07:54.420Z,2.70
2018-12-27T09:08:55.442Z,2.70
2018-12-27T09:09:56.456Z,2.80
2018-12-27T09:10:57.469Z,2.80
2018-12-27T09:11:58.520Z,2.80
2018-12-27T09:12:59.541Z,2.90
2018-12-27T09:14:00.656Z,2.90
2018-12-27T09:15:01.670Z,2.90
2018-12-27T09:16:02.692Z,2.90
2018-12-27T09:17:03.731Z,2.90
2018-12-27T09:18:04.746Z,2.90
2018-12-27T09:19:05.769Z,2.90
2018-12-27T09:20:07.684Z,2.90
2018-12-27T09:21:08.705Z,2.90
2018-12-27T09:22:09.747Z,2.90
2018-12-27T09:23:10.749Z,2.90
2018-12-27T09:24:11.774Z,2.90
2018-12-27T09:25:12.805Z,3.00
2018-12-27T09:26:13.829Z,3.00
2018-12-27T09:27:14.854Z,3.00
2018-12-27T09:28:15.879Z,3.00
2018-12-27T09:29:16.905Z,3.00
2018-12-27T09:30:17.921Z,3.00
2018-12-27T09:31:18.947Z,3.00
2018-12-27T09:32:19.993Z,3.10
2018-12-27T09:33:21.042Z,3.10
2018-12-27T09:34:22.144Z,3.10
2018-12-27T09:35:26.493Z,3.10
2018-12-27T09:36:26.384Z,3.10
2018-12-27T09:37:27.421Z,3.20
2018-12-27T09:38:28.436Z,3.20
2018-12-27T09:39:29.492Z,3.10
2018-12-27T09:40:30.626Z,3.10
2018-12-27T09:41:31.656Z,3.10
2018-12-27T09:42:32.687Z,3.10
2018-12-27T09:43:33.704Z,3.10
2018-12-27T09:44:34.732Z,3.10
2018-12-27T09:45:35.745Z,3.10
2018-12-27T09:46:36.764Z,3.10
2018-12-27T09:47:37.796Z,3.10
2018-12-27T09:48:38.829Z,3.10
2018-12-27T09:49:39.860Z,3.00
2018-12-27T09:50:40.874Z,3.00
2018-12-27T09:51:41.892Z,2.90
2018-12-27T09:52:42.920Z,2.90
2018-12-27T09:53:43.941Z,2.90
2018-12-27T09:54:44.960Z,2.90
2018-12-27T09:55:45.981Z,2.90
2018-12-27T09:56:47.000Z,2.90
2018-12-27T09:57:48.091Z,3.00
2018-12-27T09:58:49.165Z,3.00
2018-12-27T09:59:50.175Z,3.00
2018-12-27T10:00:51.201Z,3.10
2018-12-27T10:01:52.220Z,3.20
2018-12-27T10:02:53.334Z,3.20
2018-12-27T10:03:54.404Z,3.20
2018-12-27T10:04:55.426Z,3.20
2018-12-27T10:05:56.449Z,3.30
2018-12-27T10:06:57.737Z,3.30
2018-12-27T10:07:58.769Z,3.30
2018-12-27T10:08:59.788Z,3.30
2018-12-27T10:10:00.808Z,3.40
2018-12-27T10:11:01.832Z,3.40
2018-12-27T10:12:02.852Z,3.50
2018-12-27T10:13:03.881Z,3.50
2018-12-27T10:14:04.913Z,3.50
2018-12-27T10:15:07.035Z,3.50
2018-12-27T10:16:08.048Z,3.60
2018-12-27T10:17:09.071Z,3.60
2018-12-27T10:18:10.105Z,3.60
2018-12-27T10:19:11.120Z,3.60
2018-12-27T10:20:12.150Z,3.60
2018-12-27T10:21:13.173Z,3.60
2018-12-27T10:22:14.193Z,3.60
2018-12-27T10:23:15.252Z,3.60
2018-12-27T10:24:16.272Z,3.70
2018-12-27T10:25:17.326Z,3.70
2018-12-27T10:26:18.447Z,3.80
2018-12-27T10:27:19.537Z,3.70
2018-12-27T10:28:20.564Z,3.70
2018-12-27T10:29:21.677Z,3.70
2018-12-27T10:30:22.712Z,3.70
2018-12-27T10:31:23.712Z,3.70
2018-12-27T10:32:24.737Z,3.70
2018-12-27T10:33:25.765Z,3.80
2018-12-27T10:34:26.785Z,3.80
2018-12-27T10:35:27.817Z,3.80
2018-12-27T10:36:28.848Z,3.80
2018-12-27T10:37:29.885Z,3.80
2018-12-27T10:38:30.915Z,3.60
2018-12-27T10:39:31.925Z,3.80
2018-12-27T10:40:32.984Z,3.80
2018-12-27T10:41:34.019Z,3.90
2018-12-27T10:42:35.071Z,3.90
2018-12-27T10:43:36.108Z,3.90
2018-12-27T10:44:37.123Z,3.90
2018-12-27T10:45:38.144Z,3.90
2018-12-27T10:46:39.205Z,4.00
2018-12-27T10:47:40.228Z,4.00
2018-12-27T10:48:41.248Z,3.90
2018-12-27T10:49:42.269Z,3.90
2018-12-27T10:50:43.285Z,3.90
2018-12-27T10:51:44.312Z,3.90
2018-12-27T10:52:45.324Z,3.80
2018-12-27T10:53:46.354Z,3.80
2018-12-27T10:54:47.378Z,3.90
2018-12-27T10:55:48.408Z,3.90
2018-12-27T10:56:49.528Z,3.90
2018-12-27T10:57:50.647Z,4.00
2018-12-27T10:58:51.681Z,4.00
2018-12-27T10:59:52.697Z,4.10
2018-12-27T11:00:53.708Z,4.10
2018-12-27T11:01:54.739Z,4.10
2018-12-27T11:02:55.765Z,4.10
2018-12-27T11:03:56.812Z,4.10
2018-12-27T11:04:57.904Z,4.00
2018-12-27T11:05:58.934Z,4.00
2018-12-27T11:06:59.944Z,4.10
2018-12-27T11:08:00.969Z,4.10
2018-12-27T11:09:04.597Z,4.10
2018-12-27T11:10:07.716Z,4.10
2018-12-27T11:11:08.736Z,4.10
2018-12-27T11:12:09.769Z,4.10
2018-12-27T11:13:10.789Z,4.10
2018-12-27T11:14:11.859Z,4.10
2018-12-27T11:15:12.875Z,4.20
2018-12-27T11:16:13.896Z,4.20
2018-12-27T11:17:14.915Z,4.20
2018-12-27T11:18:16.022Z,4.30
2018-12-27T11:19:17.171Z,4.30
2018-12-27T11:20:18.295Z,4.40
2018-12-27T11:21:19.309Z,4.40
2018-12-27T11:22:20.328Z,4.40
2018-12-27T11:23:21.348Z,4.50
2018-12-27T11:24:22.381Z,4.50
2018-12-27T11:25:23.390Z,4.50
2018-12-27T11:26:24.409Z,4.60
2018-12-27T11:27:25.429Z,4.60
2018-12-27T11:28:26.461Z,4.60
2018-12-27T11:29:27.505Z,4.60
2018-12-27T11:30:28.523Z,4.60
2018-12-27T11:31:29.557Z,4.60
2018-12-27T11:32:30.577Z,4.60
2018-12-27T11:33:31.588Z,4.50
2018-12-27T11:34:32.625Z,4.50
2018-12-27T11:35:33.644Z,4.50
2018-12-27T11:36:34.672Z,4.50
2018-12-27T11:37:35.700Z,4.60
2018-12-27T11:38:36.733Z,4.50
2018-12-27T11:39:37.868Z,4.50
2018-12-27T11:40:39.105Z,4.50
2018-12-27T11:41:40.120Z,4.50
2018-12-27T11:42:41.148Z,4.60
2018-12-27T11:43:42.172Z,4.60
2018-12-27T11:44:43.202Z,4.60
2018-12-27T11:45:44.220Z,4.60
2018-12-27T11:46:45.244Z,4.60
2018-12-27T11:47:46.256Z,4.70
2018-12-27T11:48:47.306Z,4.70
2018-12-27T11:49:48.329Z,4.70
2018-12-27T11:50:49.347Z,4.80
2018-12-27T11:51:50.379Z,4.80
2018-12-27T11:52:51.395Z,4.90
2018-12-27T11:53:52.411Z,4.90
2018-12-27T11:54:56.353Z,5.00
2018-12-27T11:55:57.373Z,5.00
2018-12-27T11:56:58.403Z,5.00
2018-12-27T11:57:59.425Z,5.10
2018-12-27T11:59:00.444Z,5.10
2018-12-27T12:00:02.177Z,5.10
2018-12-27T12:01:03.434Z,5.10
2018-12-27T12:02:04.461Z,5.20
2018-12-27T12:03:05.494Z,5.20
2018-12-27T12:04:06.519Z,5.30
2018-12-27T12:05:07.541Z,5.30
2018-12-27T12:06:08.556Z,5.30
2018-12-27T12:07:09.576Z,5.30
2018-12-27T12:08:10.588Z,5.30
2018-12-27T12:09:11.641Z,5.40
2018-12-27T12:10:12.685Z,5.40
2018-12-27T12:11:13.701Z,5.40
2018-12-27T12:12:14.729Z,5.40
2018-12-27T12:13:15.749Z,5.40
2018-12-27T12:14:16.768Z,5.40
2018-12-27T12:15:17.813Z,5.50
2018-12-27T12:16:18.821Z,5.50
2018-12-27T12:17:19.838Z,5.50
2018-12-27T12:18:20.852Z,5.50
2018-12-27T12:19:21.881Z,5.50
2018-12-27T12:20:22.908Z,5.50
2018-12-27T12:21:23.923Z,5.50
2018-12-27T12:22:25.049Z,5.50
2018-12-27T12:23:26.069Z,5.50
2018-12-27T12:24:27.097Z,5.50
2018-12-27T12:25:28.112Z,5.60
2018-12-27T12:26:29.137Z,5.60
2018-12-27T12:27:30.153Z,5.60
2018-12-27T12:28:31.179Z,5.60
2018-12-27T12:29:32.208Z,5.70
2018-12-27T12:30:33.216Z,5.60
2018-12-27T12:31:34.232Z,5.70
2018-12-27T12:32:35.260Z,5.70
2018-12-27T12:33:36.270Z,5.70
2018-12-27T12:34:39.002Z,5.70
2018-12-27T12:35:40.236Z,5.80
2018-12-27T12:36:41.358Z,5.80
2018-12-27T12:37:43.692Z,5.80
2018-12-27T12:38:45.129Z,5.80
2018-12-27T12:39:46.260Z,5.80
2018-12-27T12:40:47.294Z,5.80
2018-12-27T12:41:48.320Z,5.90
2018-12-27T12:42:49.332Z,5.80
2018-12-27T12:43:50.353Z,5.80
2018-12-27T12:44:51.376Z,5.80
2018-12-27T12:45:52.413Z,5.80
2018-12-27T12:46:53.433Z,5.80
2018-12-27T12:47:54.443Z,5.90
2018-12-27T12:48:55.457Z,5.90
2018-12-27T12:49:56.488Z,5.90
2018-12-27T12:50:57.523Z,5.90
2018-12-27T12:51:58.538Z,5.90
2018-12-27T12:52:59.558Z,5.90
2018-12-27T12:54:00.575Z,5.90
2018-12-27T12:55:01.617Z,6.00
2018-12-27T12:56:02.630Z,6.00
2018-12-27T12:57:03.680Z,6.00
2018-12-27T12:58:04.697Z,6.00
2018-12-27T12:59:05.753Z,6.00
2018-12-27T13:00:08.397Z,6.00
2018-12-27T13:01:09.424Z,6.00
2018-12-27T13:02:10.448Z,6.00
2018-12-27T13:03:11.481Z,6.00
2018-12-27T13:04:12.513Z,6.10
2018-12-27T13:05:13.549Z,6.10
2018-12-27T13:06:17.979Z,6.10
2018-12-27T13:07:17.610Z,6.20
2018-12-27T13:08:18.934Z,6.20
2018-12-27T13:09:19.943Z,6.10
2018-12-27T13:10:20.999Z,6.20
2018-12-27T13:11:22.022Z,6.20
2018-12-27T13:12:23.045Z,6.20
2018-12-27T13:13:24.061Z,6.20
2018-12-27T13:14:25.076Z,6.20
2018-12-27T13:15:26.103Z,6.20
2018-12-27T13:16:27.121Z,6.30
2018-12-27T13:17:28.144Z,6.30
2018-12-27T13:18:29.165Z,6.30
2018-12-27T13:19:30.185Z,6.30
2018-12-27T13:20:31.216Z,6.30
2018-12-27T13:21:32.239Z,6.30
2018-12-27T13:22:33.281Z,6.30
2018-12-27T13:23:34.300Z,6.40
2018-12-27T13:24:35.325Z,6.40
2018-12-27T13:25:41.493Z,6.50
2018-12-27T13:26:42.518Z,6.50
2018-12-27T13:27:43.545Z,6.60
2018-12-27T13:28:44.560Z,6.60
2018-12-27T13:29:45.576Z,6.60
2018-12-27T13:30:46.601Z,6.60
2018-12-27T13:31:47.638Z,6.60
2018-12-27T13:32:48.669Z,6.60